sensor_id;sensor_type;location;lat;lon;timestamp;temperature;humidity
29663;DHT22;16578;53.266;7.920;2023-05-10T00:01:47;18.70;81.10
29663;DHT22;16578;53.266;7.920;2023-05-10T00:04:13;18.70;81.10
29663;DHT22;16578;53.266;7.920;2023-05-10T00:06:38;18.70;81.00
29663;DHT22;16578;53.266;7.920;2023-05-10T00:09:04;18.70;81.00
29663;DHT22;16578;53.266;7.920;2023-05-10T00:11:29;18.70;81.00
29663;DHT22;16578;53.266;7.920;2023-05-10T00:13:55;18.60;81.00
29663;DHT22;16578;53.266;7.920;2023-05-10T00:16:21;18.70;81.20
29663;DHT22;16578;53.266;7.920;2023-05-10T00:18:46;18.60;81.10
29663;DHT22;16578;53.266;7.920;2023-05-10T00:21:12;18.70;81.10
29663;DHT22;16578;53.266;7.920;2023-05-10T00:23:37;18.60;81.60
29663;DHT22;16578;53.266;7.920;2023-05-10T00:26:03;18.60;81.10
29663;DHT22;16578;53.266;7.920;2023-05-10T00:28:29;18.60;81.10
29663;DHT22;16578;53.266;7.920;2023-05-10T00:30:55;18.60;81.20
29663;DHT22;16578;53.266;7.920;2023-05-10T00:33:20;18.60;81.20
29663;DHT22;16578;53.266;7.920;2023-05-10T00:35:46;18.60;81.10
29663;DHT22;16578;53.266;7.920;2023-05-10T00:38:12;18.60;81.20
29663;DHT22;16578;53.266;7.920;2023-05-10T00:40:37;18.50;81.20
29663;DHT22;16578;53.266;7.920;2023-05-10T00:43:03;18.50;81.20
29663;DHT22;16578;53.266;7.920;2023-05-10T00:45:31;18.50;81.20
29663;DHT22;16578;53.266;7.920;2023-05-10T00:47:58;18.50;81.20
29663;DHT22;16578;53.266;7.920;2023-05-10T00:50:25;18.40;81.20
29663;DHT22;16578;53.266;7.920;2023-05-10T00:52:51;18.40;81.30
29663;DHT22;16578;53.266;7.920;2023-05-10T00:55:17;18.40;81.40
29663;DHT22;16578;53.266;7.920;2023-05-10T00:57:43;18.40;81.50
29663;DHT22;16578;53.266;7.920;2023-05-10T01:00:09;18.30;81.50
29663;DHT22;16578;53.266;7.920;2023-05-10T01:02:36;18.40;81.70
29663;DHT22;16578;53.266;7.920;2023-05-10T01:05:02;18.40;81.70
29663;DHT22;16578;53.266;7.920;2023-05-10T01:07:29;18.30;81.70
29663;DHT22;16578;53.266;7.920;2023-05-10T01:09:55;18.30;81.70
29663;DHT22;16578;53.266;7.920;2023-05-10T01:12:20;18.30;81.80
29663;DHT22;16578;53.266;7.920;2023-05-10T01:14:46;18.30;81.90
29663;DHT22;16578;53.266;7.920;2023-05-10T01:17:13;18.30;82.00
29663;DHT22;16578;53.266;7.920;2023-05-10T01:19:39;18.30;81.90
29663;DHT22;16578;53.266;7.920;2023-05-10T01:22:22;18.30;82.00
29663;DHT22;16578;53.266;7.920;2023-05-10T01:28:26;18.40;82.10
29663;DHT22;16578;53.266;7.920;2023-05-10T01:33:39;18.40;82.10
29663;DHT22;16578;53.266;7.920;2023-05-10T01:36:32;18.40;82.10
29663;DHT22;16578;53.266;7.920;2023-05-10T01:39:16;18.40;82.10
29663;DHT22;16578;53.266;7.920;2023-05-10T01:41:55;18.40;82.20
29663;DHT22;16578;53.266;7.920;2023-05-10T01:44:35;18.40;82.20
29663;DHT22;16578;53.266;7.920;2023-05-10T01:47:31;18.40;82.20
29663;DHT22;16578;53.266;7.920;2023-05-10T01:50:03;18.40;82.20
29663;DHT22;16578;53.266;7.920;2023-05-10T01:52:42;18.40;82.00
29663;DHT22;16578;53.266;7.920;2023-05-10T01:55:14;18.50;82.00
29663;DHT22;16578;53.266;7.920;2023-05-10T01:57:43;18.50;81.90
29663;DHT22;16578;53.266;7.920;2023-05-10T02:00:09;18.50;81.80
29663;DHT22;16578;53.266;7.920;2023-05-10T02:02:40;18.40;82.10
29663;DHT22;16578;53.266;7.920;2023-05-10T02:05:08;18.50;81.60
29663;DHT22;16578;53.266;7.920;2023-05-10T02:07:35;18.50;81.60
29663;DHT22;16578;53.266;7.920;2023-05-10T02:10:03;18.50;81.60
29663;DHT22;16578;53.266;7.920;2023-05-10T02:12:30;18.50;81.50
29663;DHT22;16578;53.266;7.920;2023-05-10T02:14:57;18.50;81.50
29663;DHT22;16578;53.266;7.920;2023-05-10T02:17:25;18.50;81.40
29663;DHT22;16578;53.266;7.920;2023-05-10T02:19:51;18.50;81.40
29663;DHT22;16578;53.266;7.920;2023-05-10T02:22:18;18.50;81.20
29663;DHT22;16578;53.266;7.920;2023-05-10T02:24:45;18.50;81.20
29663;DHT22;16578;53.266;7.920;2023-05-10T02:27:12;18.50;81.20
29663;DHT22;16578;53.266;7.920;2023-05-10T02:29:39;18.50;81.10
29663;DHT22;16578;53.266;7.920;2023-05-10T02:32:06;18.40;81.10
29663;DHT22;16578;53.266;7.920;2023-05-10T02:34:35;18.40;81.10
29663;DHT22;16578;53.266;7.920;2023-05-10T02:37:02;18.40;81.30
29663;DHT22;16578;53.266;7.920;2023-05-10T02:39:28;18.40;81.30
29663;DHT22;16578;53.266;7.920;2023-05-10T02:41:55;18.40;81.30
29663;DHT22;16578;53.266;7.920;2023-05-10T02:44:22;18.40;81.30
29663;DHT22;16578;53.266;7.920;2023-05-10T02:46:48;18.40;81.30
29663;DHT22;16578;53.266;7.920;2023-05-10T02:49:15;18.40;81.10
29663;DHT22;16578;53.266;7.920;2023-05-10T02:51:44;18.40;81.00
29663;DHT22;16578;53.266;7.920;2023-05-10T02:54:19;18.40;80.90
29663;DHT22;16578;53.266;7.920;2023-05-10T02:56:56;18.40;80.80
29663;DHT22;16578;53.266;7.920;2023-05-10T02:59:22;18.40;80.70
29663;DHT22;16578;53.266;7.920;2023-05-10T03:01:47;18.30;81.50
29663;DHT22;16578;53.266;7.920;2023-05-10T03:04:13;18.30;80.70
29663;DHT22;16578;53.266;7.920;2023-05-10T03:06:40;18.30;80.70
29663;DHT22;16578;53.266;7.920;2023-05-10T03:09:06;18.30;80.80
29663;DHT22;16578;53.266;7.920;2023-05-10T03:11:56;18.30;80.80
29663;DHT22;16578;53.266;7.920;2023-05-10T03:17:11;18.30;80.80
29663;DHT22;16578;53.266;7.920;2023-05-10T03:20:09;18.20;80.80
29663;DHT22;16578;53.266;7.920;2023-05-10T03:22:45;18.20;80.80
29663;DHT22;16578;53.266;7.920;2023-05-10T03:25:12;18.20;80.70
29663;DHT22;16578;53.266;7.920;2023-05-10T03:27:40;18.20;80.80
29663;DHT22;16578;53.266;7.920;2023-05-10T03:30:11;18.20;80.90
29663;DHT22;16578;53.266;7.920;2023-05-10T03:32:37;18.20;80.80
29663;DHT22;16578;53.266;7.920;2023-05-10T03:35:10;18.10;80.90
29663;DHT22;16578;53.266;7.920;2023-05-10T03:37:37;18.10;80.90
29663;DHT22;16578;53.266;7.920;2023-05-10T03:40:03;18.10;80.90
29663;DHT22;16578;53.266;7.920;2023-05-10T03:42:29;18.10;81.00
29663;DHT22;16578;53.266;7.920;2023-05-10T03:44:54;18.10;81.00
29663;DHT22;16578;53.266;7.920;2023-05-10T03:47:20;18.10;80.90
29663;DHT22;16578;53.266;7.920;2023-05-10T03:49:46;18.10;80.80
29663;DHT22;16578;53.266;7.920;2023-05-10T03:52:11;18.00;80.50
29663;DHT22;16578;53.266;7.920;2023-05-10T03:54:37;18.00;80.60
29663;DHT22;16578;53.266;7.920;2023-05-10T03:57:02;18.00;80.60
29663;DHT22;16578;53.266;7.920;2023-05-10T03:59:29;18.00;80.60
29663;DHT22;16578;53.266;7.920;2023-05-10T04:01:55;18.00;80.50
29663;DHT22;16578;53.266;7.920;2023-05-10T04:04:20;18.00;80.60
29663;DHT22;16578;53.266;7.920;2023-05-10T04:06:47;17.90;80.50
29663;DHT22;16578;53.266;7.920;2023-05-10T04:09:12;17.90;80.50
29663;DHT22;16578;53.266;7.920;2023-05-10T04:11:39;17.90;80.40
29663;DHT22;16578;53.266;7.920;2023-05-10T04:14:04;17.90;80.20
29663;DHT22;16578;53.266;7.920;2023-05-10T04:16:30;17.80;80.10
29663;DHT22;16578;53.266;7.920;2023-05-10T04:18:55;17.80;80.00
29663;DHT22;16578;53.266;7.920;2023-05-10T04:21:21;17.80;80.10
29663;DHT22;16578;53.266;7.920;2023-05-10T04:23:47;17.70;80.10
29663;DHT22;16578;53.266;7.920;2023-05-10T04:26:13;17.70;80.00
29663;DHT22;16578;53.266;7.920;2023-05-10T04:28:38;17.70;80.10
29663;DHT22;16578;53.266;7.920;2023-05-10T04:31:08;17.70;80.00
29663;DHT22;16578;53.266;7.920;2023-05-10T04:33:34;17.60;79.80
29663;DHT22;16578;53.266;7.920;2023-05-10T04:36:00;17.50;79.90
29663;DHT22;16578;53.266;7.920;2023-05-10T04:38:26;17.50;80.10
29663;DHT22;16578;53.266;7.920;2023-05-10T04:40:52;17.50;80.20
29663;DHT22;16578;53.266;7.920;2023-05-10T04:43:18;17.50;80.30
29663;DHT22;16578;53.266;7.920;2023-05-10T04:45:43;17.40;80.40
29663;DHT22;16578;53.266;7.920;2023-05-10T04:48:09;17.50;80.70
29663;DHT22;16578;53.266;7.920;2023-05-10T04:50:34;17.50;80.70
29663;DHT22;16578;53.266;7.920;2023-05-10T04:53:00;17.40;80.70
29663;DHT22;16578;53.266;7.920;2023-05-10T04:55:26;17.50;80.90
29663;DHT22;16578;53.266;7.920;2023-05-10T04:57:52;17.40;80.80
29663;DHT22;16578;53.266;7.920;2023-05-10T05:00:18;17.50;80.90
29663;DHT22;16578;53.266;7.920;2023-05-10T05:02:44;17.50;80.90
29663;DHT22;16578;53.266;7.920;2023-05-10T05:05:11;17.50;80.90
29663;DHT22;16578;53.266;7.920;2023-05-10T05:07:37;17.50;80.90
29663;DHT22;16578;53.266;7.920;2023-05-10T05:10:06;17.50;81.00
29663;DHT22;16578;53.266;7.920;2023-05-10T05:12:32;17.50;80.90
29663;DHT22;16578;53.266;7.920;2023-05-10T05:14:58;17.50;80.90
29663;DHT22;16578;53.266;7.920;2023-05-10T05:17:23;17.50;80.90
29663;DHT22;16578;53.266;7.920;2023-05-10T05:19:49;17.50;80.70
29663;DHT22;16578;53.266;7.920;2023-05-10T05:22:14;17.50;80.70
29663;DHT22;16578;53.266;7.920;2023-05-10T05:24:40;17.50;80.70
29663;DHT22;16578;53.266;7.920;2023-05-10T05:27:06;17.50;80.70
29663;DHT22;16578;53.266;7.920;2023-05-10T05:29:32;17.60;81.10
29663;DHT22;16578;53.266;7.920;2023-05-10T05:31:58;17.50;81.70
29663;DHT22;16578;53.266;7.920;2023-05-10T05:34:23;17.50;80.90
29663;DHT22;16578;53.266;7.920;2023-05-10T05:36:49;17.50;80.90
29663;DHT22;16578;53.266;7.920;2023-05-10T05:39:15;17.60;80.90
29663;DHT22;16578;53.266;7.920;2023-05-10T05:41:41;17.60;81.00
29663;DHT22;16578;53.266;7.920;2023-05-10T05:44:07;17.60;81.00
29663;DHT22;16578;53.266;7.920;2023-05-10T05:46:32;17.60;81.10
29663;DHT22;16578;53.266;7.920;2023-05-10T05:48:58;17.60;81.10
29663;DHT22;16578;53.266;7.920;2023-05-10T05:51:23;17.60;81.10
29663;DHT22;16578;53.266;7.920;2023-05-10T05:53:49;17.60;81.00
29663;DHT22;16578;53.266;7.920;2023-05-10T05:56:14;17.70;81.00
29663;DHT22;16578;53.266;7.920;2023-05-10T05:58:40;17.70;81.10
29663;DHT22;16578;53.266;7.920;2023-05-10T06:01:06;17.70;81.00
29663;DHT22;16578;53.266;7.920;2023-05-10T06:03:32;17.70;81.10
29663;DHT22;16578;53.266;7.920;2023-05-10T06:05:58;17.80;81.20
29663;DHT22;16578;53.266;7.920;2023-05-10T06:08:23;17.80;81.30
29663;DHT22;16578;53.266;7.920;2023-05-10T06:10:49;17.80;81.30
29663;DHT22;16578;53.266;7.920;2023-05-10T06:13:14;17.80;81.40
29663;DHT22;16578;53.266;7.920;2023-05-10T06:15:40;17.80;81.40
29663;DHT22;16578;53.266;7.920;2023-05-10T06:18:06;17.90;81.40
29663;DHT22;16578;53.266;7.920;2023-05-10T06:20:31;17.90;81.20
29663;DHT22;16578;53.266;7.920;2023-05-10T06:22:57;18.00;81.30
29663;DHT22;16578;53.266;7.920;2023-05-10T06:25:23;18.00;81.30
29663;DHT22;16578;53.266;7.920;2023-05-10T06:27:49;18.00;81.30
29663;DHT22;16578;53.266;7.920;2023-05-10T06:30:15;18.10;81.10
29663;DHT22;16578;53.266;7.920;2023-05-10T06:32:41;18.10;81.20
29663;DHT22;16578;53.266;7.920;2023-05-10T06:35:07;18.20;81.10
29663;DHT22;16578;53.266;7.920;2023-05-10T06:37:33;18.20;80.90
29663;DHT22;16578;53.266;7.920;2023-05-10T06:39:59;18.20;80.70
29663;DHT22;16578;53.266;7.920;2023-05-10T06:42:26;18.20;80.50
29663;DHT22;16578;53.266;7.920;2023-05-10T06:44:52;18.20;80.30
29663;DHT22;16578;53.266;7.920;2023-05-10T06:47:18;18.30;80.40
29663;DHT22;16578;53.266;7.920;2023-05-10T06:49:44;18.30;80.30
29663;DHT22;16578;53.266;7.920;2023-05-10T06:52:09;18.30;80.30
29663;DHT22;16578;53.266;7.920;2023-05-10T06:54:35;18.30;80.20
29663;DHT22;16578;53.266;7.920;2023-05-10T06:57:00;18.30;80.10
29663;DHT22;16578;53.266;7.920;2023-05-10T06:59:26;18.30;80.00
29663;DHT22;16578;53.266;7.920;2023-05-10T07:01:51;18.20;79.90
29663;DHT22;16578;53.266;7.920;2023-05-10T07:04:17;18.20;79.90
29663;DHT22;16578;53.266;7.920;2023-05-10T07:06:43;18.20;79.80
29663;DHT22;16578;53.266;7.920;2023-05-10T07:09:08;18.20;79.70
29663;DHT22;16578;53.266;7.920;2023-05-10T07:11:34;18.20;79.70
29663;DHT22;16578;53.266;7.920;2023-05-10T07:14:00;18.20;79.60
29663;DHT22;16578;53.266;7.920;2023-05-10T07:16:26;18.10;79.70
29663;DHT22;16578;53.266;7.920;2023-05-10T07:18:51;18.20;79.80
29663;DHT22;16578;53.266;7.920;2023-05-10T07:21:18;18.10;79.70
29663;DHT22;16578;53.266;7.920;2023-05-10T07:23:43;18.10;79.70
29663;DHT22;16578;53.266;7.920;2023-05-10T07:26:09;18.10;79.80
29663;DHT22;16578;53.266;7.920;2023-05-10T07:28:35;18.00;79.70
29663;DHT22;16578;53.266;7.920;2023-05-10T07:31:02;18.00;79.90
29663;DHT22;16578;53.266;7.920;2023-05-10T07:33:28;18.00;79.90
29663;DHT22;16578;53.266;7.920;2023-05-10T07:35:53;18.00;80.10
29663;DHT22;16578;53.266;7.920;2023-05-10T07:38:19;18.00;80.20
29663;DHT22;16578;53.266;7.920;2023-05-10T07:40:44;18.00;80.20
29663;DHT22;16578;53.266;7.920;2023-05-10T07:43:10;18.00;80.20
29663;DHT22;16578;53.266;7.920;2023-05-10T07:45:35;18.00;80.30
29663;DHT22;16578;53.266;7.920;2023-05-10T07:48:01;18.00;80.30
29663;DHT22;16578;53.266;7.920;2023-05-10T07:50:27;18.00;80.20
29663;DHT22;16578;53.266;7.920;2023-05-10T07:52:53;18.00;81.10
29663;DHT22;16578;53.266;7.920;2023-05-10T07:55:19;18.10;80.30
29663;DHT22;16578;53.266;7.920;2023-05-10T07:57:46;18.00;80.30
29663;DHT22;16578;53.266;7.920;2023-05-10T08:00:17;18.10;80.40
29663;DHT22;16578;53.266;7.920;2023-05-10T08:02:43;18.10;80.40
29663;DHT22;16578;53.266;7.920;2023-05-10T08:05:09;18.10;80.30
29663;DHT22;16578;53.266;7.920;2023-05-10T08:07:35;18.10;80.30
29663;DHT22;16578;53.266;7.920;2023-05-10T08:10:01;18.10;80.30
29663;DHT22;16578;53.266;7.920;2023-05-10T08:12:26;18.10;80.30
29663;DHT22;16578;53.266;7.920;2023-05-10T08:14:52;18.20;80.30
29663;DHT22;16578;53.266;7.920;2023-05-10T08:17:17;18.20;80.30
29663;DHT22;16578;53.266;7.920;2023-05-10T08:19:43;18.20;80.20
29663;DHT22;16578;53.266;7.920;2023-05-10T08:22:08;18.20;80.20
29663;DHT22;16578;53.266;7.920;2023-05-10T08:24:34;18.20;80.30
29663;DHT22;16578;53.266;7.920;2023-05-10T08:27:04;18.20;80.40
29663;DHT22;16578;53.266;7.920;2023-05-10T08:29:30;18.20;80.50
29663;DHT22;16578;53.266;7.920;2023-05-10T08:31:55;18.20;80.50
29663;DHT22;16578;53.266;7.920;2023-05-10T08:34:21;18.20;80.50
29663;DHT22;16578;53.266;7.920;2023-05-10T08:36:47;18.30;80.40
29663;DHT22;16578;53.266;7.920;2023-05-10T08:39:12;18.30;80.20
29663;DHT22;16578;53.266;7.920;2023-05-10T08:41:39;18.30;80.20
29663;DHT22;16578;53.266;7.920;2023-05-10T08:44:07;18.40;80.30
29663;DHT22;16578;53.266;7.920;2023-05-10T08:46:34;18.40;80.40
29663;DHT22;16578;53.266;7.920;2023-05-10T08:49:02;18.40;80.30
29663;DHT22;16578;53.266;7.920;2023-05-10T08:51:35;18.40;80.10
29663;DHT22;16578;53.266;7.920;2023-05-10T08:54:02;18.40;80.00
29663;DHT22;16578;53.266;7.920;2023-05-10T08:56:29;18.40;80.00
29663;DHT22;16578;53.266;7.920;2023-05-10T08:58:55;18.40;80.00
29663;DHT22;16578;53.266;7.920;2023-05-10T09:01:21;18.40;79.90
29663;DHT22;16578;53.266;7.920;2023-05-10T09:03:47;18.40;79.80
29663;DHT22;16578;53.266;7.920;2023-05-10T09:06:13;18.40;79.80
29663;DHT22;16578;53.266;7.920;2023-05-10T09:08:41;18.40;79.80
29663;DHT22;16578;53.266;7.920;2023-05-10T09:11:07;18.50;80.20
29663;DHT22;16578;53.266;7.920;2023-05-10T09:13:33;18.50;80.60
29663;DHT22;16578;53.266;7.920;2023-05-10T09:16:00;18.50;81.00
29663;DHT22;16578;53.266;7.920;2023-05-10T09:18:26;18.60;80.90
29663;DHT22;16578;53.266;7.920;2023-05-10T09:20:51;18.70;80.90
29663;DHT22;16578;53.266;7.920;2023-05-10T09:23:17;18.70;80.90
29663;DHT22;16578;53.266;7.920;2023-05-10T09:25:43;18.80;80.90
29663;DHT22;16578;53.266;7.920;2023-05-10T09:28:09;18.90;81.10
29663;DHT22;16578;53.266;7.920;2023-05-10T09:30:35;19.00;80.90
29663;DHT22;16578;53.266;7.920;2023-05-10T09:33:01;19.10;80.50
29663;DHT22;16578;53.266;7.920;2023-05-10T09:35:29;19.20;80.00
29663;DHT22;16578;53.266;7.920;2023-05-10T09:37:56;19.20;79.70
29663;DHT22;16578;53.266;7.920;2023-05-10T09:40:24;19.20;80.00
29663;DHT22;16578;53.266;7.920;2023-05-10T09:45:19;19.30;79.30
29663;DHT22;16578;53.266;7.920;2023-05-10T09:47:45;19.30;79.30
29663;DHT22;16578;53.266;7.920;2023-05-10T09:50:11;19.30;79.20
29663;DHT22;16578;53.266;7.920;2023-05-10T09:52:50;19.30;79.30
29663;DHT22;16578;53.266;7.920;2023-05-10T09:55:23;19.40;79.10
29663;DHT22;16578;53.266;7.920;2023-05-10T09:57:58;19.30;79.00
29663;DHT22;16578;53.266;7.920;2023-05-10T10:00:24;19.40;79.00
29663;DHT22;16578;53.266;7.920;2023-05-10T10:02:59;19.30;78.90
29663;DHT22;16578;53.266;7.920;2023-05-10T10:05:35;19.40;79.00
29663;DHT22;16578;53.266;7.920;2023-05-10T10:08:03;19.40;79.00
29663;DHT22;16578;53.266;7.920;2023-05-10T10:10:31;19.40;78.80
29663;DHT22;16578;53.266;7.920;2023-05-10T10:12:57;19.30;78.50
29663;DHT22;16578;53.266;7.920;2023-05-10T10:15:23;19.30;78.40
29663;DHT22;16578;53.266;7.920;2023-05-10T10:17:50;19.30;78.20
29663;DHT22;16578;53.266;7.920;2023-05-10T10:20:16;19.30;78.10
29663;DHT22;16578;53.266;7.920;2023-05-10T10:22:42;19.30;78.30
29663;DHT22;16578;53.266;7.920;2023-05-10T10:25:11;19.20;78.40
29663;DHT22;16578;53.266;7.920;2023-05-10T10:27:54;19.20;79.00
29663;DHT22;16578;53.266;7.920;2023-05-10T10:30:30;19.20;78.50
29663;DHT22;16578;53.266;7.920;2023-05-10T10:35:29;19.20;78.50
29663;DHT22;16578;53.266;7.920;2023-05-10T10:37:56;19.10;78.50
29663;DHT22;16578;53.266;7.920;2023-05-10T10:40:30;19.00;78.50
29663;DHT22;16578;53.266;7.920;2023-05-10T10:42:56;19.10;78.50
29663;DHT22;16578;53.266;7.920;2023-05-10T10:45:23;19.00;78.60
29663;DHT22;16578;53.266;7.920;2023-05-10T10:48:20;19.00;78.70
29663;DHT22;16578;53.266;7.920;2023-05-10T10:50:45;19.00;78.60
29663;DHT22;16578;53.266;7.920;2023-05-10T10:53:12;19.00;78.80
29663;DHT22;16578;53.266;7.920;2023-05-10T10:55:46;18.90;78.80
29663;DHT22;16578;53.266;7.920;2023-05-10T10:58:29;19.00;78.90
29663;DHT22;16578;53.266;7.920;2023-05-10T11:03:40;19.00;79.20
29663;DHT22;16578;53.266;7.920;2023-05-10T11:06:05;18.90;78.90
29663;DHT22;16578;53.266;7.920;2023-05-10T11:08:32;18.90;78.60
29663;DHT22;16578;53.266;7.920;2023-05-10T11:11:02;18.90;78.30
29663;DHT22;16578;53.266;7.920;2023-05-10T11:13:41;18.90;78.30
29663;DHT22;16578;53.266;7.920;2023-05-10T11:16:15;18.90;78.10
29663;DHT22;16578;53.266;7.920;2023-05-10T11:18:40;18.90;78.10
29663;DHT22;16578;53.266;7.920;2023-05-10T11:21:09;18.80;77.90
29663;DHT22;16578;53.266;7.920;2023-05-10T11:26:11;18.80;78.00
29663;DHT22;16578;53.266;7.920;2023-05-10T11:28:44;18.70;78.00
29663;DHT22;16578;53.266;7.920;2023-05-10T11:31:10;18.70;77.90
29663;DHT22;16578;53.266;7.920;2023-05-10T11:33:51;18.60;78.00
29663;DHT22;16578;53.266;7.920;2023-05-10T11:36:19;18.60;77.90
29663;DHT22;16578;53.266;7.920;2023-05-10T11:38:45;18.60;77.80
29663;DHT22;16578;53.266;7.920;2023-05-10T11:41:11;18.50;77.60
29663;DHT22;16578;53.266;7.920;2023-05-10T11:43:39;18.40;77.70
29663;DHT22;16578;53.266;7.920;2023-05-10T11:46:06;18.40;77.70
29663;DHT22;16578;53.266;7.920;2023-05-10T11:48:32;18.30;77.70
29663;DHT22;16578;53.266;7.920;2023-05-10T11:50:58;18.30;77.80
29663;DHT22;16578;53.266;7.920;2023-05-10T11:53:27;18.20;78.20
29663;DHT22;16578;53.266;7.920;2023-05-10T11:55:52;18.20;78.50
29663;DHT22;16578;53.266;7.920;2023-05-10T11:58:18;18.20;78.70
29663;DHT22;16578;53.266;7.920;2023-05-10T12:00:44;18.20;78.80
29663;DHT22;16578;53.266;7.920;2023-05-10T12:03:11;18.20;79.00
29663;DHT22;16578;53.266;7.920;2023-05-10T12:05:37;18.20;79.10
29663;DHT22;16578;53.266;7.920;2023-05-10T12:08:13;18.20;79.10
29663;DHT22;16578;53.266;7.920;2023-05-10T12:10:38;18.20;79.30
29663;DHT22;16578;53.266;7.920;2023-05-10T12:13:04;18.20;79.40
29663;DHT22;16578;53.266;7.920;2023-05-10T12:15:30;18.30;79.60
29663;DHT22;16578;53.266;7.920;2023-05-10T12:17:56;18.30;79.30
29663;DHT22;16578;53.266;7.920;2023-05-10T12:20:27;18.30;79.10
29663;DHT22;16578;53.266;7.920;2023-05-10T12:22:56;18.40;78.90
29663;DHT22;16578;53.266;7.920;2023-05-10T12:25:23;18.30;78.90
29663;DHT22;16578;53.266;7.920;2023-05-10T12:27:53;18.40;79.00
29663;DHT22;16578;53.266;7.920;2023-05-10T12:30:21;18.40;80.00
29663;DHT22;16578;53.266;7.920;2023-05-10T12:32:47;18.40;79.30
29663;DHT22;16578;53.266;7.920;2023-05-10T12:35:12;18.50;79.60
29663;DHT22;16578;53.266;7.920;2023-05-10T12:37:38;18.50;79.50
29663;DHT22;16578;53.266;7.920;2023-05-10T12:40:09;18.60;79.90
29663;DHT22;16578;53.266;7.920;2023-05-10T12:42:36;18.70;79.40
29663;DHT22;16578;53.266;7.920;2023-05-10T12:45:03;18.80;79.30
29663;DHT22;16578;53.266;7.920;2023-05-10T12:47:29;18.90;80.00
29663;DHT22;16578;53.266;7.920;2023-05-10T12:49:55;19.00;79.10
29663;DHT22;16578;53.266;7.920;2023-05-10T12:52:21;19.00;78.80
29663;DHT22;16578;53.266;7.920;2023-05-10T12:54:46;19.10;78.50
29663;DHT22;16578;53.266;7.920;2023-05-10T12:57:13;19.20;78.20
29663;DHT22;16578;53.266;7.920;2023-05-10T12:59:39;19.20;77.80
29663;DHT22;16578;53.266;7.920;2023-05-10T13:02:04;19.20;77.40
29663;DHT22;16578;53.266;7.920;2023-05-10T13:04:30;19.20;77.10
29663;DHT22;16578;53.266;7.920;2023-05-10T13:06:55;19.20;77.40
29663;DHT22;16578;53.266;7.920;2023-05-10T13:09:24;19.20;77.90
29663;DHT22;16578;53.266;7.920;2023-05-10T13:11:50;19.20;78.10
29663;DHT22;16578;53.266;7.920;2023-05-10T13:14:16;19.30;78.10
29663;DHT22;16578;53.266;7.920;2023-05-10T13:16:41;19.30;77.70
29663;DHT22;16578;53.266;7.920;2023-05-10T13:19:07;19.30;77.50
29663;DHT22;16578;53.266;7.920;2023-05-10T13:21:33;19.40;77.50
29663;DHT22;16578;53.266;7.920;2023-05-10T13:23:58;19.40;77.00
29663;DHT22;16578;53.266;7.920;2023-05-10T13:26:24;19.40;76.40
29663;DHT22;16578;53.266;7.920;2023-05-10T13:28:50;19.30;76.10
29663;DHT22;16578;53.266;7.920;2023-05-10T13:31:16;19.30;75.90
29663;DHT22;16578;53.266;7.920;2023-05-10T13:33:42;19.20;75.90
29663;DHT22;16578;53.266;7.920;2023-05-10T13:36:07;19.20;77.00
29663;DHT22;16578;53.266;7.920;2023-05-10T13:38:33;19.10;76.30
29663;DHT22;16578;53.266;7.920;2023-05-10T13:40:59;19.10;76.30
29663;DHT22;16578;53.266;7.920;2023-05-10T13:43:24;19.00;76.00
29663;DHT22;16578;53.266;7.920;2023-05-10T13:45:50;19.00;75.90
29663;DHT22;16578;53.266;7.920;2023-05-10T13:48:15;19.00;76.40
29663;DHT22;16578;53.266;7.920;2023-05-10T13:50:41;19.00;76.70
29663;DHT22;16578;53.266;7.920;2023-05-10T13:53:06;19.00;76.60
29663;DHT22;16578;53.266;7.920;2023-05-10T13:55:32;19.00;76.80
29663;DHT22;16578;53.266;7.920;2023-05-10T13:57:57;19.00;76.70
29663;DHT22;16578;53.266;7.920;2023-05-10T14:00:23;19.00;76.50
29663;DHT22;16578;53.266;7.920;2023-05-10T14:02:48;19.00;76.20
29663;DHT22;16578;53.266;7.920;2023-05-10T14:05:14;19.00;76.00
29663;DHT22;16578;53.266;7.920;2023-05-10T14:07:40;19.00;76.00
29663;DHT22;16578;53.266;7.920;2023-05-10T14:10:06;19.00;76.00
29663;DHT22;16578;53.266;7.920;2023-05-10T14:12:32;19.00;76.00
29663;DHT22;16578;53.266;7.920;2023-05-10T14:14:57;19.00;75.80
29663;DHT22;16578;53.266;7.920;2023-05-10T14:17:23;19.00;75.60
29663;DHT22;16578;53.266;7.920;2023-05-10T14:19:49;19.00;75.40
29663;DHT22;16578;53.266;7.920;2023-05-10T14:22:14;19.00;75.10
29663;DHT22;16578;53.266;7.920;2023-05-10T14:24:40;19.00;75.00
29663;DHT22;16578;53.266;7.920;2023-05-10T14:27:05;19.00;74.80
29663;DHT22;16578;53.266;7.920;2023-05-10T14:29:31;19.00;75.00
29663;DHT22;16578;53.266;7.920;2023-05-10T14:31:56;19.00;75.10
29663;DHT22;16578;53.266;7.920;2023-05-10T14:34:22;19.00;74.90
29663;DHT22;16578;53.266;7.920;2023-05-10T14:36:47;19.00;74.70
29663;DHT22;16578;53.266;7.920;2023-05-10T14:39:13;19.00;74.70
29663;DHT22;16578;53.266;7.920;2023-05-10T14:41:39;19.00;74.80
29663;DHT22;16578;53.266;7.920;2023-05-10T14:44:08;19.00;75.00
29663;DHT22;16578;53.266;7.920;2023-05-10T14:46:33;19.00;75.00
29663;DHT22;16578;53.266;7.920;2023-05-10T14:48:59;19.00;75.00
29663;DHT22;16578;53.266;7.920;2023-05-10T14:51:25;19.10;75.20
29663;DHT22;16578;53.266;7.920;2023-05-10T14:53:50;19.10;75.70
29663;DHT22;16578;53.266;7.920;2023-05-10T14:56:16;19.20;76.00
29663;DHT22;16578;53.266;7.920;2023-05-10T14:58:41;19.30;75.80
29663;DHT22;16578;53.266;7.920;2023-05-10T15:01:07;19.40;75.20
29663;DHT22;16578;53.266;7.920;2023-05-10T15:03:32;19.40;74.50
29663;DHT22;16578;53.266;7.920;2023-05-10T15:05:58;19.40;74.00
29663;DHT22;16578;53.266;7.920;2023-05-10T15:08:24;19.50;73.70
29663;DHT22;16578;53.266;7.920;2023-05-10T15:10:50;19.50;73.50
29663;DHT22;16578;53.266;7.920;2023-05-10T15:13:16;19.50;73.50
29663;DHT22;16578;53.266;7.920;2023-05-10T15:15:42;19.50;73.70
29663;DHT22;16578;53.266;7.920;2023-05-10T15:18:11;19.60;73.50
29663;DHT22;16578;53.266;7.920;2023-05-10T15:20:36;19.60;73.20
29663;DHT22;16578;53.266;7.920;2023-05-10T15:23:02;19.60;73.00
29663;DHT22;16578;53.266;7.920;2023-05-10T15:25:28;19.60;72.80
29663;DHT22;16578;53.266;7.920;2023-05-10T15:27:54;19.60;72.60
29663;DHT22;16578;53.266;7.920;2023-05-10T15:30:19;19.50;72.70
29663;DHT22;16578;53.266;7.920;2023-05-10T15:32:45;19.50;72.60
29663;DHT22;16578;53.266;7.920;2023-05-10T15:35:11;19.50;72.70
29663;DHT22;16578;53.266;7.920;2023-05-10T15:37:37;19.50;72.50
29663;DHT22;16578;53.266;7.920;2023-05-10T15:40:03;19.50;72.60
29663;DHT22;16578;53.266;7.920;2023-05-10T15:42:32;19.40;72.60
29663;DHT22;16578;53.266;7.920;2023-05-10T15:44:57;19.50;72.80
29663;DHT22;16578;53.266;7.920;2023-05-10T15:47:23;19.40;73.30
29663;DHT22;16578;53.266;7.920;2023-05-10T15:49:49;19.40;73.20